Terminal Aerodrome Forecast
Issued by NWS

Home | Current Version | Previous Version | Text Only | Print | Product List | Glossary On
Versions: 1 2 3 4 5 6 7 8 9 10 11 12
000
FTUS45 KRIW 271722
TAFCPR
TAF
KCPR 271722Z 2718/2818 34010KT P6SM SCT120
     FM271900 28016G26KT P6SM VCTS SCT080CB BKN120
     FM280000 34011G18KT P6SM VCSH BKN100
     FM280600 VRB05KT P6SM SCT090 BKN120
     FM281500 22010G16KT P6SM FEW100=

USA.gov is the U.S. government's official web portal to all federal, state and local government web resources and services.